Time;durP1;ratioP1;P1;durP2;ratioP2;P2;SDS_P1;SDS_P2;PMS_P1;PMS_P2;Temp;Humidity;BMP_temperature;BMP_pressure;BME280_temperature;BME280_humidity;BME280_pressure;Samples;Min_cycle;Max_cycle;Signal;HPM_P1;HPM_P2
2022/07/29 00:01:20;;;;;;;;;;;24.60;42.50;;;;;;5049207;28;19971;-60
2022/07/29 00:03:45;;;;;;;;;;;24.60;42.50;;;;;;5051231;28;19931;-61
2022/07/29 00:06:11;;;;;;;;;;;24.60;42.50;;;;;;5048179;28;20368;-61
2022/07/29 00:08:36;;;;;;;;;;;24.50;42.60;;;;;;5049760;28;19912;-61
2022/07/29 00:11:02;;;;;;;;;;;24.50;42.60;;;;;;5052133;28;19982;-60
2022/07/29 00:13:27;;;;;;;;;;;24.50;42.60;;;;;;5052574;28;19925;-61
2022/07/29 00:15:53;;;;;;;;;;;24.50;42.60;;;;;;5043339;28;19924;-61
2022/07/29 00:18:18;;;;;;;;;;;24.50;42.60;;;;;;5046727;28;19923;-60
2022/07/29 00:20:43;;;;;;;;;;;24.50;42.70;;;;;;5054853;28;20046;-60
2022/07/29 00:23:09;;;;;;;;;;;24.40;42.60;;;;;;5050620;28;19920;-60
2022/07/29 00:25:34;;;;;;;;;;;24.50;42.70;;;;;;5053724;28;19924;-60
2022/07/29 00:28:00;;;;;;;;;;;24.50;42.70;;;;;;5050928;28;19921;-59
2022/07/29 00:30:25;;;;;;;;;;;24.40;42.60;;;;;;5053537;28;19912;-60
2022/07/29 00:32:51;;;;;;;;;;;24.50;42.70;;;;;;5043787;28;19968;-61
2022/07/29 00:38:00;;;;;;;;;;;24.40;42.60;;;;;;5051815;28;19990;-60
2022/07/29 00:40:25;;;;;;;;;;;24.40;42.60;;;;;;5054134;28;20042;-60
2022/07/29 00:42:51;;;;;;;;;;;24.40;43.30;;;;;;5048486;28;19913;-60
2022/07/29 00:45:17;;;;;;;;;;;24.40;42.60;;;;;;5054093;28;19916;-60
2022/07/29 00:47:42;;;;;;;;;;;24.40;42.60;;;;;;5051819;28;19917;-60
2022/07/29 00:50:08;;;;;;;;;;;24.40;42.60;;;;;;5047275;28;19989;-60
2022/07/29 00:52:37;;;;;;;;;;;24.30;42.60;;;;;;5052220;28;19913;-60
2022/07/29 00:55:03;;;;;;;;;;;24.40;42.60;;;;;;5046934;28;19916;-60
2022/07/29 00:57:29;;;;;;;;;;;24.40;42.60;;;;;;5051697;28;19927;-61
2022/07/29 00:59:54;;;;;;;;;;;24.40;42.60;;;;;;5052034;28;19917;-60
2022/07/29 01:02:20;;;;;;;;;;;24.40;42.50;;;;;;5052831;28;19917;-60
2022/07/29 01:04:45;;;;;;;;;;;24.50;42.50;;;;;;5047158;28;19923;-60
2022/07/29 01:07:11;;;;;;;;;;;24.50;42.40;;;;;;5045695;28;19925;-61
2022/07/29 01:09:36;;;;;;;;;;;24.40;42.50;;;;;;5052677;28;19913;-60
2022/07/29 01:12:01;;;;;;;;;;;24.30;42.60;;;;;;5050673;28;20055;-60
2022/07/29 01:14:27;;;;;;;;;;;24.30;42.60;;;;;;5054379;28;20272;-60
2022/07/29 01:17:01;;;;;;;;;;;24.30;42.50;;;;;;5051379;28;19956;-61
2022/07/29 01:19:29;;;;;;;;;;;24.40;42.30;;;;;;5052770;28;20377;-60
2022/07/29 01:21:55;;;;;;;;;;;24.40;42.20;;;;;;5044250;28;19920;-60
2022/07/29 01:24:21;;;;;;;;;;;24.40;42.30;;;;;;5051189;28;19913;-60
2022/07/29 01:26:47;;;;;;;;;;;24.40;42.20;;;;;;5052797;28;19973;-61
2022/07/29 01:29:30;;;;;;;;;;;24.40;42.20;;;;;;5065705;28;19921;-60
2022/07/29 01:31:57;;;;;;;;;;;24.40;42.20;;;;;;5049909;28;20030;-60
2022/07/29 01:34:41;;;;;;;;;;;24.30;42.20;;;;;;5049338;28;19919;-60
2022/07/29 01:37:13;;;;;;;;;;;24.30;42.20;;;;;;5049988;28;19917;-60
2022/07/29 01:39:39;;;;;;;;;;;24.30;42.20;;;;;;5044201;28;20007;-61
2022/07/29 01:42:06;;;;;;;;;;;24.30;42.30;;;;;;5048426;28;20007;-61
2022/07/29 01:44:37;;;;;;;;;;;24.20;42.30;;;;;;5053377;28;19974;-60
2022/07/29 01:47:06;;;;;;;;;;;24.30;42.30;;;;;;5066112;28;19917;-60
2022/07/29 01:49:31;;;;;;;;;;;24.20;42.30;;;;;;5048855;28;19963;-60
2022/07/29 01:52:11;;;;;;;;;;;24.20;42.20;;;;;;5051388;28;20879;-60
2022/07/29 01:54:42;;;;;;;;;;;24.30;42.30;;;;;;5046276;28;19913;-60
2022/07/29 01:57:08;;;;;;;;;;;24.30;42.20;;;;;;5040945;28;20607;-61
2022/07/29 01:59:33;;;;;;;;;;;24.20;42.10;;;;;;5049757;28;19919;-60
2022/07/29 02:01:59;;;;;;;;;;;24.20;42.10;;;;;;5050728;28;19917;-60
2022/07/29 02:04:24;;;;;;;;;;;24.20;42.20;;;;;;5050564;28;19999;-61
2022/07/29 02:06:51;;;;;;;;;;;24.20;42.20;;;;;;5053680;28;20008;-60
2022/07/29 02:09:16;;;;;;;;;;;24.20;42.30;;;;;;5050688;28;19913;-60
2022/07/29 02:11:43;;;;;;;;;;;24.10;42.40;;;;;;5047353;28;19967;-60
2022/07/29 02:14:08;;;;;;;;;;;24.10;42.40;;;;;;5041305;28;19925;-60
2022/07/29 02:16:34;;;;;;;;;;;24.10;42.40;;;;;;5050012;28;20364;-60
2022/07/29 02:19:00;;;;;;;;;;;24.10;42.40;;;;;;5043488;28;19951;-60
2022/07/29 02:21:26;;;;;;;;;;;24.10;42.40;;;;;;5050660;28;19999;-60
2022/07/29 02:23:52;;;;;;;;;;;24.10;42.40;;;;;;5049595;28;19991;-60
2022/07/29 02:26:19;;;;;;;;;;;24.10;42.40;;;;;;5048496;28;19939;-60
2022/07/29 02:28:44;;;;;;;;;;;24.10;42.40;;;;;;5045839;28;19921;-60
2022/07/29 02:31:10;;;;;;;;;;;24.10;42.40;;;;;;5042824;28;20011;-60
2022/07/29 02:33:35;;;;;;;;;;;24.10;42.40;;;;;;5050365;28;20041;-60
2022/07/29 02:36:01;;;;;;;;;;;24.10;42.40;;;;;;5051231;28;19909;-60
2022/07/29 02:41:11;;;;;;;;;;;24.10;42.40;;;;;;5044405;28;20373;-60
2022/07/29 02:43:37;;;;;;;;;;;24.10;42.40;;;;;;5051183;28;19909;-60
2022/07/29 02:46:02;;;;;;;;;;;24.10;42.40;;;;;;5043961;28;19916;-60
2022/07/29 02:48:31;;;;;;;;;;;24.10;42.40;;;;;;5048683;28;19928;-60
2022/07/29 02:50:59;;;;;;;;;;;24.10;42.50;;;;;;5049759;28;20331;-60
2022/07/29 02:53:25;;;;;;;;;;;24.00;42.40;;;;;;5062767;28;19956;-60
2022/07/29 02:56:00;;;;;;;;;;;24.10;42.50;;;;;;5049046;28;19940;-60
2022/07/29 02:58:32;;;;;;;;;;;24.10;42.40;;;;;;5049134;28;19919;-60
2022/07/29 03:00:58;;;;;;;;;;;24.10;42.40;;;;;;5038486;28;19920;-60
2022/07/29 03:03:25;;;;;;;;;;;24.10;42.50;;;;;;5042935;28;19913;-60
2022/07/29 03:05:53;;;;;;;;;;;24.00;42.50;;;;;;5047287;28;19916;-60
2022/07/29 03:08:18;;;;;;;;;;;24.00;42.60;;;;;;5049419;28;20011;-60
2022/07/29 03:10:45;;;;;;;;;;;24.00;42.80;;;;;;5050968;28;20374;-60
2022/07/29 03:13:10;;;;;;;;;;;24.00;43.50;;;;;;5050019;28;19971;-60
2022/07/29 03:15:36;;;;;;;;;;;23.90;42.80;;;;;;5047504;28;19940;-60
2022/07/29 03:18:01;;;;;;;;;;;24.00;42.80;;;;;;5042223;28;19913;-60
2022/07/29 03:20:27;;;;;;;;;;;24.00;42.90;;;;;;5050498;28;19909;-60
2022/07/29 03:22:52;;;;;;;;;;;24.00;42.80;;;;;;5046224;28;19917;-60
2022/07/29 03:25:18;;;;;;;;;;;24.10;42.80;;;;;;5050240;28;19948;-60
2022/07/29 03:27:44;;;;;;;;;;;24.00;42.60;;;;;;5048811;28;19917;-60
2022/07/29 03:30:09;;;;;;;;;;;24.00;42.90;;;;;;5049678;28;19916;-60
2022/07/29 03:32:35;;;;;;;;;;;24.00;42.90;;;;;;5044166;28;20376;-60
2022/07/29 03:35:01;;;;;;;;;;;23.90;42.80;;;;;;5043694;28;19967;-60
2022/07/29 03:37:26;;;;;;;;;;;23.90;42.90;;;;;;5045046;28;20388;-60
2022/07/29 03:39:52;;;;;;;;;;;24.00;43.10;;;;;;5050480;28;19924;-60
2022/07/29 03:42:18;;;;;;;;;;;23.90;43.00;;;;;;5050486;28;19917;-60
2022/07/29 03:44:44;;;;;;;;;;;23.90;43.10;;;;;;5053397;28;19920;-60
2022/07/29 03:47:09;;;;;;;;;;;23.80;43.00;;;;;;5052010;28;20312;-60
2022/07/29 03:49:35;;;;;;;;;;;23.80;43.10;;;;;;5045566;28;19921;-60
2022/07/29 03:52:00;;;;;;;;;;;23.80;43.10;;;;;;5046245;28;20012;-60
2022/07/29 03:54:26;;;;;;;;;;;23.80;43.20;;;;;;5049026;28;19913;-60
2022/07/29 03:56:51;;;;;;;;;;;23.90;43.20;;;;;;5052559;28;19924;-61
2022/07/29 03:59:17;;;;;;;;;;;23.90;43.10;;;;;;5052722;28;20011;-60
2022/07/29 04:01:42;;;;;;;;;;;23.90;43.10;;;;;;5053943;28;19917;-60
2022/07/29 04:04:08;;;;;;;;;;;23.90;43.00;;;;;;5053922;28;20011;-60
2022/07/29 04:06:40;;;;;;;;;;;23.90;43.10;;;;;;5049081;28;19913;-61
2022/07/29 04:09:05;;;;;;;;;;;24.00;43.10;;;;;;5049997;28;20007;-60
2022/07/29 04:11:31;;;;;;;;;;;24.00;43.00;;;;;;5053272;28;19920;-60
2022/07/29 04:13:56;;;;;;;;;;;24.00;42.90;;;;;;5053505;28;19932;-60
2022/07/29 04:16:22;;;;;;;;;;;24.00;43.00;;;;;;5052947;28;20554;-60
2022/07/29 04:18:47;;;;;;;;;;;23.90;43.00;;;;;;5053752;28;20514;-60
2022/07/29 04:21:14;;;;;;;;;;;24.00;43.10;;;;;;5051643;28;21291;-60
2022/07/29 04:23:40;;;;;;;;;;;23.90;43.10;;;;;;5047493;28;19927;-60
2022/07/29 04:26:09;;;;;;;;;;;23.80;43.10;;;;;;5049071;28;19919;-61
2022/07/29 04:28:34;;;;;;;;;;;23.90;43.70;;;;;;5051674;28;19928;-60
2022/07/29 04:31:00;;;;;;;;;;;24.00;43.00;;;;;;5051859;28;19912;-60
2022/07/29 04:33:25;;;;;;;;;;;24.00;43.10;;;;;;5050739;28;19917;-60
2022/07/29 04:35:51;;;;;;;;;;;23.90;43.10;;;;;;5046572;28;20007;-60
2022/07/29 04:38:16;;;;;;;;;;;23.90;43.10;;;;;;5050853;28;19913;-60
2022/07/29 04:40:42;;;;;;;;;;;23.90;43.10;;;;;;5063233;28;19913;-61
2022/07/29 04:43:10;;;;;;;;;;;23.90;43.10;;;;;;5053485;28;19916;-60
2022/07/29 04:45:35;;;;;;;;;;;23.90;43.10;;;;;;5052365;28;19920;-60
2022/07/29 04:48:01;;;;;;;;;;;23.90;43.10;;;;;;5046094;28;19916;-60
2022/07/29 04:50:26;;;;;;;;;;;24.00;43.10;;;;;;5052201;28;19913;-60
2022/07/29 04:52:52;;;;;;;;;;;24.00;43.10;;;;;;5052742;28;20011;-60
2022/07/29 04:55:17;;;;;;;;;;;24.00;43.10;;;;;;5051734;28;20621;-60
2022/07/29 04:57:43;;;;;;;;;;;24.00;43.00;;;;;;5041335;28;20280;-60
2022/07/29 05:00:09;;;;;;;;;;;24.00;43.10;;;;;;5051493;28;19913;-60
2022/07/29 05:02:34;;;;;;;;;;;24.00;43.10;;;;;;5052864;28;20367;-60
2022/07/29 05:04:59;;;;;;;;;;;24.00;43.10;;;;;;5049514;28;19917;-60
2022/07/29 05:07:25;;;;;;;;;;;23.90;43.10;;;;;;5051054;28;20043;-60
2022/07/29 05:09:50;;;;;;;;;;;23.90;43.20;;;;;;5052767;28;19955;-60
2022/07/29 05:12:16;;;;;;;;;;;23.90;43.20;;;;;;5050340;28;19928;-60
2022/07/29 05:14:41;;;;;;;;;;;23.90;43.20;;;;;;5045736;28;19913;-60
2022/07/29 05:17:07;;;;;;;;;;;24.00;43.30;;;;;;5048976;28;19976;-60
2022/07/29 05:19:32;;;;;;;;;;;23.90;43.20;;;;;;5051609;28;20015;-59
2022/07/29 05:21:58;;;;;;;;;;;23.90;43.30;;;;;;5051851;28;19966;-60
2022/07/29 05:24:24;;;;;;;;;;;23.90;43.40;;;;;;5049483;28;19948;-61
2022/07/29 05:26:49;;;;;;;;;;;23.80;43.40;;;;;;5052203;28;20003;-60
2022/07/29 05:29:15;;;;;;;;;;;23.80;43.50;;;;;;5051263;28;19916;-60
2022/07/29 05:31:40;;;;;;;;;;;23.80;43.40;;;;;;5046980;28;19923;-60
2022/07/29 05:34:06;;;;;;;;;;;23.80;43.50;;;;;;5051215;28;20323;-60
2022/07/29 05:36:31;;;;;;;;;;;23.80;43.60;;;;;;5052344;28;20311;-61
2022/07/29 05:38:57;;;;;;;;;;;23.80;43.50;;;;;;5048296;28;20347;-60
2022/07/29 05:41:22;;;;;;;;;;;23.80;43.60;;;;;;5049577;28;19970;-60
2022/07/29 05:43:48;;;;;;;;;;;23.80;43.50;;;;;;5049367;28;20305;-60
2022/07/29 05:46:16;;;;;;;;;;;23.80;43.50;;;;;;5053094;28;19932;-60
2022/07/29 05:48:41;;;;;;;;;;;23.80;43.60;;;;;;5043479;28;19921;-61
2022/07/29 05:51:07;;;;;;;;;;;23.80;43.60;;;;;;5052970;28;20277;-60
2022/07/29 05:53:33;;;;;;;;;;;23.80;43.60;;;;;;5044244;28;20017;-60
2022/07/29 05:55:58;;;;;;;;;;;23.80;43.70;;;;;;5044024;28;19924;-60
2022/07/29 05:58:23;;;;;;;;;;;23.80;43.70;;;;;;5052247;28;19919;-60
2022/07/29 06:00:49;;;;;;;;;;;23.80;43.70;;;;;;5050219;28;19927;-60
2022/07/29 06:03:14;;;;;;;;;;;23.80;43.80;;;;;;5047332;28;19921;-60
2022/07/29 06:05:40;;;;;;;;;;;23.90;43.80;;;;;;5043481;28;19987;-61
2022/07/29 06:08:06;;;;;;;;;;;23.80;43.70;;;;;;5050179;28;19955;-61
2022/07/29 06:10:32;;;;;;;;;;;23.80;43.90;;;;;;5051926;28;19913;-61
2022/07/29 06:12:57;;;;;;;;;;;23.80;44.10;;;;;;5051434;28;19925;-60
2022/07/29 06:15:23;;;;;;;;;;;23.70;44.10;;;;;;5048704;28;19917;-60
2022/07/29 06:17:48;;;;;;;;;;;23.80;44.10;;;;;;5051311;28;19917;-60
2022/07/29 06:20:14;;;;;;;;;;;23.80;44.00;;;;;;5044451;28;19983;-60
2022/07/29 06:22:39;;;;;;;;;;;23.80;44.20;;;;;;5043564;28;19928;-60
2022/07/29 06:25:05;;;;;;;;;;;23.70;44.20;;;;;;5052247;28;19915;-60
2022/07/29 06:27:30;;;;;;;;;;;23.80;44.20;;;;;;5050930;28;19917;-60
2022/07/29 06:29:56;;;;;;;;;;;23.80;44.10;;;;;;5052546;28;19913;-60
2022/07/29 06:32:22;;;;;;;;;;;23.90;44.20;;;;;;5047882;28;20004;-61
2022/07/29 06:34:47;;;;;;;;;;;23.90;44.30;;;;;;5048773;28;19920;-61
2022/07/29 06:37:13;;;;;;;;;;;23.80;44.40;;;;;;5044845;28;19936;-62
2022/07/29 06:39:38;;;;;;;;;;;23.80;44.50;;;;;;5043633;28;19924;-60
2022/07/29 06:42:04;;;;;;;;;;;23.80;44.50;;;;;;5051854;28;19967;-60
2022/07/29 06:44:29;;;;;;;;;;;23.80;44.50;;;;;;5047770;28;19940;-60
2022/07/29 06:46:55;;;;;;;;;;;23.90;44.50;;;;;;5051344;28;19913;-60
2022/07/29 06:49:21;;;;;;;;;;;23.80;44.50;;;;;;5050407;28;20380;-61
2022/07/29 06:51:46;;;;;;;;;;;23.80;44.60;;;;;;5051036;28;19948;-60
2022/07/29 06:54:11;;;;;;;;;;;23.80;44.70;;;;;;5046930;28;19921;-61
2022/07/29 06:56:37;;;;;;;;;;;23.80;44.70;;;;;;5043994;28;19913;-60
2022/07/29 06:59:03;;;;;;;;;;;23.80;44.70;;;;;;5051303;28;19985;-60
2022/07/29 07:01:28;;;;;;;;;;;23.90;44.80;;;;;;5040463;28;20035;-60
2022/07/29 07:03:54;;;;;;;;;;;23.90;44.90;;;;;;5048215;28;19912;-60
2022/07/29 07:06:19;;;;;;;;;;;23.90;44.80;;;;;;5044986;28;19916;-60
2022/07/29 07:08:45;;;;;;;;;;;23.90;44.80;;;;;;5045588;28;19917;-60
2022/07/29 07:11:11;;;;;;;;;;;23.90;44.80;;;;;;5042682;28;19920;-62
2022/07/29 07:13:36;;;;;;;;;;;23.90;44.90;;;;;;5046598;28;19944;-60
2022/07/29 07:16:02;;;;;;;;;;;23.90;45.00;;;;;;5049615;28;19916;-60
2022/07/29 07:18:27;;;;;;;;;;;23.80;45.00;;;;;;5050989;28;19909;-60
2022/07/29 07:20:53;;;;;;;;;;;23.80;45.10;;;;;;5050543;28;19916;-60
2022/07/29 07:23:18;;;;;;;;;;;23.90;45.20;;;;;;5049325;28;19912;-61
2022/07/29 07:25:44;;;;;;;;;;;23.90;45.00;;;;;;5051118;28;19955;-60
2022/07/29 07:28:09;;;;;;;;;;;23.90;45.10;;;;;;5041140;28;19921;-61
2022/07/29 07:30:35;;;;;;;;;;;23.90;45.20;;;;;;5043183;28;19999;-60
2022/07/29 07:33:00;;;;;;;;;;;23.90;45.20;;;;;;5048595;28;19912;-61
2022/07/29 07:35:27;;;;;;;;;;;24.00;45.20;;;;;;5043030;28;19920;-60
2022/07/29 07:37:53;;;;;;;;;;;23.90;45.30;;;;;;5043991;28;20000;-61
2022/07/29 07:40:18;;;;;;;;;;;23.90;45.50;;;;;;5043883;28;20375;-59
2022/07/29 07:42:44;;;;;;;;;;;23.80;46.20;;;;;;5041529;28;20388;-61
2022/07/29 07:45:10;;;;;;;;;;;23.80;46.10;;;;;;5043111;28;20903;-61
2022/07/29 07:47:36;;;;;;;;;;;23.80;46.10;;;;;;5042013;28;20287;-60
2022/07/29 07:50:02;;;;;;;;;;;23.70;46.20;;;;;;5039023;28;19925;-61
2022/07/29 07:52:27;;;;;;;;;;;23.60;46.60;;;;;;5039848;28;19919;-61
2022/07/29 07:54:52;;;;;;;;;;;23.60;46.70;;;;;;5049152;28;19960;-61
2022/07/29 07:57:18;;;;;;;;;;;23.60;46.80;;;;;;5046611;28;19917;-61
2022/07/29 07:59:43;;;;;;;;;;;23.60;47.00;;;;;;5050925;28;19984;-60
2022/07/29 08:02:09;;;;;;;;;;;23.60;47.00;;;;;;5050840;28;19959;-60
2022/07/29 08:04:35;;;;;;;;;;;23.50;47.20;;;;;;5050717;28;19913;-59
2022/07/29 08:07:00;;;;;;;;;;;23.50;47.30;;;;;;5050858;28;19956;-58
2022/07/29 08:09:26;;;;;;;;;;;23.50;47.30;;;;;;5043424;28;19921;-59
2022/07/29 08:11:52;;;;;;;;;;;23.50;47.30;;;;;;5049218;28;19916;-61
2022/07/29 08:14:17;;;;;;;;;;;23.40;47.20;;;;;;5043620;28;19974;-61
2022/07/29 08:16:43;;;;;;;;;;;23.50;47.30;;;;;;5047606;28;19971;-60
2022/07/29 08:19:08;;;;;;;;;;;23.50;47.30;;;;;;5046095;28;20300;-60
2022/07/29 08:21:34;;;;;;;;;;;23.40;47.20;;;;;;5040364;28;19974;-60
2022/07/29 08:26:43;;;;;;;;;;;23.50;47.30;;;;;;5041652;28;19978;-61
2022/07/29 08:29:09;;;;;;;;;;;23.50;47.30;;;;;;5045936;28;19917;-63
2022/07/29 08:31:35;;;;;;;;;;;23.50;47.30;;;;;;5045236;28;19965;-60
2022/07/29 08:34:02;;;;;;;;;;;23.50;47.30;;;;;;5048981;28;20300;-61
2022/07/29 08:36:27;;;;;;;;;;;23.50;47.40;;;;;;5050873;28;19935;-61
2022/07/29 08:38:53;;;;;;;;;;;23.60;47.40;;;;;;5049883;28;20357;-59
2022/07/29 08:41:18;;;;;;;;;;;23.60;47.40;;;;;;5063163;28;19917;-60
2022/07/29 08:43:44;;;;;;;;;;;23.60;47.40;;;;;;5038237;28;20014;-62
2022/07/29 08:46:09;;;;;;;;;;;23.70;47.50;;;;;;5050954;28;19924;-61
2022/07/29 08:48:35;;;;;;;;;;;23.70;47.50;;;;;;5053375;28;19932;-61
2022/07/29 08:51:00;;;;;;;;;;;23.80;47.60;;;;;;5052720;28;19913;-61
2022/07/29 08:53:26;;;;;;;;;;;23.80;47.30;;;;;;5051064;28;20003;-61
2022/07/29 08:55:52;;;;;;;;;;;23.90;47.40;;;;;;5041044;28;19921;-61
2022/07/29 08:58:17;;;;;;;;;;;23.90;47.50;;;;;;5047778;28;19916;-61
2022/07/29 09:00:44;;;;;;;;;;;23.90;47.30;;;;;;5047027;28;19924;-61
2022/07/29 09:03:10;;;;;;;;;;;24.00;47.20;;;;;;5042012;28;20012;-62
2022/07/29 09:05:35;;;;;;;;;;;24.10;47.30;;;;;;5047293;28;20003;-60
2022/07/29 09:08:01;;;;;;;;;;;24.20;47.20;;;;;;5051592;28;19926;-60
2022/07/29 09:10:27;;;;;;;;;;;24.20;47.10;;;;;;5044861;28;20000;-61
2022/07/29 09:12:54;;;;;;;;;;;24.20;47.00;;;;;;5047963;28;19925;-61
2022/07/29 09:15:19;;;;;;;;;;;24.30;47.20;;;;;;5047132;28;20376;-62
2022/07/29 09:17:45;;;;;;;;;;;24.30;46.90;;;;;;5041910;28;19919;-61
2022/07/29 09:20:12;;;;;;;;;;;24.40;46.80;;;;;;5052152;28;19912;-60
2022/07/29 09:22:37;;;;;;;;;;;24.40;46.60;;;;;;5046516;28;19971;-61
2022/07/29 09:25:03;;;;;;;;;;;24.50;46.50;;;;;;5045287;28;19992;-61
2022/07/29 09:27:28;;;;;;;;;;;24.50;46.40;;;;;;5051738;28;19924;-61
2022/07/29 09:30:12;;;;;;;;;;;24.50;46.40;;;;;;5048879;28;20318;-61
2022/07/29 09:32:57;;;;;;;;;;;24.50;46.40;;;;;;5041536;28;19925;-61
2022/07/29 09:35:23;;;;;;;;;;;24.50;46.30;;;;;;5043373;28;20937;-60
2022/07/29 09:37:48;;;;;;;;;;;24.50;46.90;;;;;;5046753;28;19917;-61
2022/07/29 09:40:18;;;;;;;;;;;24.60;46.30;;;;;;5045789;28;19919;-61
2022/07/29 09:42:43;;;;;;;;;;;24.50;46.30;;;;;;5044699;28;20491;-59
2022/07/29 09:45:09;;;;;;;;;;;24.50;46.10;;;;;;5046383;28;19952;-60
2022/07/29 09:47:45;;;;;;;;;;;24.50;46.30;;;;;;5044145;28;19965;-62
2022/07/29 09:50:10;;;;;;;;;;;24.50;46.40;;;;;;5046541;28;20004;-60
2022/07/29 09:52:44;;;;;;;;;;;24.40;46.40;;;;;;5049148;28;20012;-61
2022/07/29 09:55:09;;;;;;;;;;;24.40;46.80;;;;;;5045145;28;19913;-61
2022/07/29 09:57:35;;;;;;;;;;;24.30;46.40;;;;;;5047323;28;19959;-62
2022/07/29 10:00:06;;;;;;;;;;;24.40;46.40;;;;;;5047981;28;19916;-62
2022/07/29 10:02:32;;;;;;;;;;;24.40;45.70;;;;;;5044832;28;20019;-61
2022/07/29 10:04:58;;;;;;;;;;;24.50;45.30;;;;;;5043880;28;20520;-61
2022/07/29 10:07:24;;;;;;;;;;;24.50;45.80;;;;;;5043730;28;20298;-60
2022/07/29 10:09:52;;;;;;;;;;;24.50;45.90;;;;;;5048203;28;19966;-60
2022/07/29 10:12:17;;;;;;;;;;;24.50;46.00;;;;;;5042823;28;22152;-61
2022/07/29 10:14:42;;;;;;;;;;;24.40;46.10;;;;;;5042887;28;20011;-60
2022/07/29 10:17:09;;;;;;;;;;;24.30;46.20;;;;;;5042544;28;19963;-61
2022/07/29 10:19:34;;;;;;;;;;;24.30;46.30;;;;;;5037138;28;19956;-62
2022/07/29 10:22:01;;;;;;;;;;;24.30;46.40;;;;;;5036371;28;19916;-61
2022/07/29 10:24:26;;;;;;;;;;;24.30;46.40;;;;;;5043213;28;20007;-62
2022/07/29 10:26:53;;;;;;;;;;;24.20;46.30;;;;;;5045119;28;20011;-62
2022/07/29 10:29:18;;;;;;;;;;;24.30;46.40;;;;;;5060398;28;20340;-62
2022/07/29 10:31:48;;;;;;;;;;;24.30;46.40;;;;;;5044926;28;19986;-61
2022/07/29 10:34:16;;;;;;;;;;;24.30;46.40;;;;;;5056786;28;20375;-61
2022/07/29 10:36:45;;;;;;;;;;;24.30;46.40;;;;;;5042958;28;19952;-61
2022/07/29 10:39:24;;;;;;;;;;;24.20;46.20;;;;;;5043651;28;20339;-62
2022/07/29 10:41:54;;;;;;;;;;;24.30;46.40;;;;;;5042565;28;19944;-61
2022/07/29 10:44:23;;;;;;;;;;;24.30;46.40;;;;;;5047281;28;19975;-61
2022/07/29 10:46:48;;;;;;;;;;;24.30;46.40;;;;;;5048760;28;20004;-62
2022/07/29 10:49:15;;;;;;;;;;;24.30;46.10;;;;;;5041890;28;20003;-62
2022/07/29 10:51:49;;;;;;;;;;;24.40;46.00;;;;;;5048817;28;20380;-62
2022/07/29 10:54:15;;;;;;;;;;;24.50;46.00;;;;;;5040337;28;19912;-62
2022/07/29 10:56:41;;;;;;;;;;;24.50;45.80;;;;;;5039664;28;19928;-62
2022/07/29 10:59:22;;;;;;;;;;;24.50;45.80;;;;;;5042118;28;20677;-62
2022/07/29 11:01:49;;;;;;;;;;;24.50;45.80;;;;;;5049160;28;20284;-62
2022/07/29 11:04:15;;;;;;;;;;;24.50;45.70;;;;;;5041441;28;19917;-62
2022/07/29 11:06:59;;;;;;;;;;;24.60;45.70;;;;;;5062141;28;19923;-62
2022/07/29 11:09:25;;;;;;;;;;;24.60;45.70;;;;;;5038286;28;20391;-63
2022/07/29 11:11:50;;;;;;;;;;;24.70;45.70;;;;;;5042425;28;19921;-62
2022/07/29 11:14:17;;;;;;;;;;;24.70;45.60;;;;;;5046247;28;20412;-62
2022/07/29 11:16:57;;;;;;;;;;;24.80;45.20;;;;;;5043308;28;19948;-62
2022/07/29 11:19:23;;;;;;;;;;;24.90;45.20;;;;;;5042570;28;20023;-62
2022/07/29 11:21:49;;;;;;;;;;;24.90;45.00;;;;;;5036877;28;20456;-62
2022/07/29 11:24:35;;;;;;;;;;;24.90;44.70;;;;;;5038100;28;20451;-62
2022/07/29 11:27:07;;;;;;;;;;;24.90;44.60;;;;;;5042539;28;19924;-61
2022/07/29 11:29:32;;;;;;;;;;;25.00;44.50;;;;;;5043158;28;19924;-62
2022/07/29 11:32:11;;;;;;;;;;;25.00;44.20;;;;;;5042644;28;19920;-61
2022/07/29 11:34:40;;;;;;;;;;;25.10;44.10;;;;;;5039149;28;20005;-61
2022/07/29 11:37:14;;;;;;;;;;;25.10;44.10;;;;;;5040843;28;19916;-61
2022/07/29 11:39:58;;;;;;;;;;;25.10;44.10;;;;;;5044879;28;19920;-63
2022/07/29 11:42:23;;;;;;;;;;;25.00;44.00;;;;;;5043499;28;20012;-62
2022/07/29 11:44:56;;;;;;;;;;;25.00;43.80;;;;;;5043398;28;20008;-61
2022/07/29 11:47:21;;;;;;;;;;;25.10;43.90;;;;;;5038817;28;21314;-61
2022/07/29 11:49:47;;;;;;;;;;;25.10;43.80;;;;;;5051870;28;20385;-62
2022/07/29 11:52:12;;;;;;;;;;;25.10;43.80;;;;;;5044908;28;19921;-62
2022/07/29 11:54:39;;;;;;;;;;;25.20;43.80;;;;;;5047142;28;19927;-61
2022/07/29 11:57:06;;;;;;;;;;;25.10;43.90;;;;;;5042752;28;20000;-61
2022/07/29 11:59:31;;;;;;;;;;;25.10;43.70;;;;;;5044895;28;19917;-63
2022/07/29 12:01:57;;;;;;;;;;;25.20;43.80;;;;;;5046795;28;20011;-62
2022/07/29 12:04:23;;;;;;;;;;;25.20;43.80;;;;;;5044145;28;19921;-62
2022/07/29 12:06:54;;;;;;;;;;;25.30;44.00;;;;;;5045381;28;20082;-62
2022/07/29 12:09:20;;;;;;;;;;;25.30;43.60;;;;;;5044912;28;19970;-62
2022/07/29 12:11:46;;;;;;;;;;;25.30;43.60;;;;;;5047977;28;19913;-62
2022/07/29 12:14:47;;;;;;;;;;;25.40;43.40;;;;;;5051175;28;19964;-61
2022/07/29 12:17:31;;;;;;;;;;;25.40;43.40;;;;;;5009083;28;19913;-62
2022/07/29 12:19:57;;;;;;;;;;;25.50;43.20;;;;;;5043409;28;19913;-62
2022/07/29 12:22:31;;;;;;;;;;;25.50;43.10;;;;;;5048927;28;19917;-62
2022/07/29 12:25:00;;;;;;;;;;;25.50;43.10;;;;;;5053048;28;19909;-62
2022/07/29 12:27:26;;;;;;;;;;;25.60;43.10;;;;;;5054635;28;19908;-62
2022/07/29 12:29:56;;;;;;;;;;;25.60;43.00;;;;;;5054599;28;19912;-62
2022/07/29 12:32:21;;;;;;;;;;;25.60;43.00;;;;;;5053216;28;19948;-63
2022/07/29 12:34:47;;;;;;;;;;;25.60;43.10;;;;;;5049560;28;19975;-62
2022/07/29 12:37:12;;;;;;;;;;;25.60;43.20;;;;;;5040622;28;19967;-62
2022/07/29 12:39:38;;;;;;;;;;;25.60;43.10;;;;;;5041596;28;19913;-62
2022/07/29 12:42:13;;;;;;;;;;;25.60;42.90;;;;;;5046078;28;19951;-62
2022/07/29 12:44:47;;;;;;;;;;;25.60;42.80;;;;;;5046275;28;20415;-62
2022/07/29 12:47:13;;;;;;;;;;;25.70;42.40;;;;;;5046102;28;20004;-62
2022/07/29 12:49:38;;;;;;;;;;;25.70;42.40;;;;;;5047383;28;20047;-62
2022/07/29 12:52:22;;;;;;;;;;;25.70;42.50;;;;;;5045193;28;19935;-62
2022/07/29 12:54:48;;;;;;;;;;;25.70;42.40;;;;;;5043510;28;19917;-62
2022/07/29 12:57:13;;;;;;;;;;;25.70;42.50;;;;;;5044038;28;19919;-62
2022/07/29 12:59:39;;;;;;;;;;;25.60;42.50;;;;;;5043605;28;19916;-62
2022/07/29 13:02:04;;;;;;;;;;;25.60;42.50;;;;;;5046046;28;19958;-62
2022/07/29 13:04:30;;;;;;;;;;;25.70;42.90;;;;;;5048364;28;19917;-62
2022/07/29 13:07:01;;;;;;;;;;;25.70;42.50;;;;;;5042260;28;19919;-62
2022/07/29 13:09:35;;;;;;;;;;;25.70;42.40;;;;;;5043939;28;20297;-62
2022/07/29 13:12:01;;;;;;;;;;;25.70;42.50;;;;;;5042510;28;19924;-63
2022/07/29 13:14:33;;;;;;;;;;;25.70;42.40;;;;;;5043002;28;19965;-65
2022/07/29 13:17:00;;;;;;;;;;;25.80;42.30;;;;;;5058766;28;19961;-63
2022/07/29 13:19:52;;;;;;;;;;;25.80;42.00;;;;;;5045433;28;19994;-63
2022/07/29 13:22:23;;;;;;;;;;;25.80;41.50;;;;;;5040863;28;19921;-62
2022/07/29 13:24:50;;;;;;;;;;;25.90;41.40;;;;;;5046320;28;19919;-62
2022/07/29 13:27:20;;;;;;;;;;;25.90;41.30;;;;;;5042211;28;19921;-62
2022/07/29 13:29:46;;;;;;;;;;;25.90;41.20;;;;;;5045485;28;20337;-63
2022/07/29 13:32:11;;;;;;;;;;;26.00;41.30;;;;;;5045070;28;19921;-62
2022/07/29 13:34:37;;;;;;;;;;;26.00;40.90;;;;;;5046242;28;19919;-63
2022/07/29 13:37:02;;;;;;;;;;;26.10;40.90;;;;;;5044483;28;19917;-62
2022/07/29 13:39:28;;;;;;;;;;;26.10;40.40;;;;;;5043658;28;19916;-62
2022/07/29 13:41:53;;;;;;;;;;;26.10;40.40;;;;;;5042938;28;19913;-61
2022/07/29 13:44:19;;;;;;;;;;;26.10;40.40;;;;;;5046762;28;20007;-61
2022/07/29 13:46:44;;;;;;;;;;;26.10;41.30;;;;;;5045442;28;19992;-61
2022/07/29 13:49:11;;;;;;;;;;;26.10;41.70;;;;;;5043696;28;19986;-61
2022/07/29 13:51:36;;;;;;;;;;;26.10;42.20;;;;;;5045284;28;20249;-61
2022/07/29 13:54:02;;;;;;;;;;;26.20;42.50;;;;;;5043769;28;20000;-61
2022/07/29 13:56:28;;;;;;;;;;;26.20;42.90;;;;;;5045578;28;19912;-61
2022/07/29 13:58:53;;;;;;;;;;;26.20;43.60;;;;;;5043289;28;19913;-61
2022/07/29 14:01:19;;;;;;;;;;;26.10;43.90;;;;;;5044458;28;20486;-62
2022/07/29 14:03:44;;;;;;;;;;;26.10;44.10;;;;;;5042744;28;20440;-61
2022/07/29 14:06:09;;;;;;;;;;;26.10;44.10;;;;;;5038962;28;19913;-61
2022/07/29 14:08:35;;;;;;;;;;;26.10;44.50;;;;;;5041334;28;19921;-61
2022/07/29 14:11:00;;;;;;;;;;;26.10;44.70;;;;;;5045172;28;19920;-62
2022/07/29 14:13:26;;;;;;;;;;;26.10;45.00;;;;;;5040269;28;19920;-61
2022/07/29 14:15:51;;;;;;;;;;;26.10;45.20;;;;;;5043479;28;19920;-61
2022/07/29 14:18:17;;;;;;;;;;;26.00;45.60;;;;;;5042609;28;19913;-62
2022/07/29 14:20:42;;;;;;;;;;;26.00;45.70;;;;;;5041109;28;20389;-62
2022/07/29 14:23:08;;;;;;;;;;;26.00;45.80;;;;;;5043344;28;20085;-61